createdAt,value
2019-02-08T00:02:15.809Z,1.23
2019-02-08T00:04:46.411Z,1.21
2019-02-08T00:07:17.204Z,1.18
2019-02-08T00:09:47.993Z,1.15
2019-02-08T00:12:19.788Z,1.18
2019-02-08T00:14:50.476Z,1.15
2019-02-08T00:17:21.021Z,1.17
2019-02-08T00:19:52.377Z,1.18
2019-02-08T00:22:22.985Z,1.16
2019-02-08T00:24:53.543Z,1.15
2019-02-08T00:27:24.888Z,1.12
2019-02-08T00:29:55.367Z,1.09
2019-02-08T00:32:26.507Z,1.09
2019-02-08T00:34:57.432Z,1.08
2019-02-08T00:37:28.074Z,1.16
2019-02-08T00:39:58.680Z,1.22
2019-02-08T00:42:29.208Z,1.25
2019-02-08T00:44:59.806Z,1.18
2019-02-08T00:47:30.383Z,1.16
2019-02-08T00:50:01.051Z,1.18
2019-02-08T00:52:31.570Z,1.14
2019-02-08T00:55:02.387Z,1.15
2019-02-08T00:57:33.451Z,1.17
2019-02-08T01:00:05.130Z,1.15
2019-02-08T01:02:35.961Z,1.16
2019-02-08T01:05:10.118Z,1.22
2019-02-08T01:07:41.231Z,1.25
2019-02-08T01:10:19.919Z,1.20
2019-02-08T01:12:50.596Z,1.22
2019-02-08T01:15:24.290Z,1.22
2019-02-08T01:17:55.710Z,1.17
2019-02-08T01:20:26.653Z,1.18
2019-02-08T01:22:57.936Z,1.22
2019-02-08T01:25:28.743Z,1.21
2019-02-08T01:27:59.487Z,1.22
2019-02-08T01:30:31.261Z,1.21
2019-02-08T01:33:02.368Z,1.23
2019-02-08T01:35:33.539Z,1.22
2019-02-08T01:38:04.227Z,1.18
2019-02-08T01:40:41.005Z,1.13
2019-02-08T06:57:50.337Z,1.32
2019-02-08T07:00:27.545Z,1.49
2019-02-08T07:03:17.142Z,1.61
2019-02-08T07:06:02.052Z,1.74
2019-02-08T07:08:51.649Z,1.89
2019-02-08T07:11:41.119Z,2.21
2019-02-08T07:14:30.953Z,1.79
2019-02-08T07:17:20.489Z,2.00
2019-02-08T07:20:09.039Z,2.75
2019-02-08T07:22:58.433Z,3.11
2019-02-08T07:25:47.981Z,3.94
2019-02-08T07:28:33.329Z,5.57
2019-02-08T07:31:13.606Z,6.77
2019-02-08T07:34:03.126Z,6.00
2019-02-08T07:36:52.771Z,7.81
2019-02-08T07:39:34.290Z,7.58
2019-02-08T07:42:23.859Z,7.80
2019-02-08T07:45:14.675Z,7.99
2019-02-08T07:48:04.801Z,7.61
2019-02-08T07:50:43.933Z,7.81
2019-02-08T07:53:29.512Z,7.26
2019-02-08T07:56:18.900Z,7.40
2019-02-08T07:58:56.996Z,9.14
2019-02-08T08:01:37.778Z,7.09
2019-02-08T08:04:30.131Z,7.98
2019-02-08T08:07:06.282Z,8.16
2019-02-08T08:09:55.735Z,11.09
2019-02-08T08:12:34.827Z,8.73
2019-02-08T08:15:16.892Z,11.88
2019-02-08T08:18:06.866Z,9.48
2019-02-08T08:20:52.558Z,11.94
2019-02-08T08:23:42.696Z,10.53
2019-02-08T08:26:32.666Z,11.61
2019-02-08T08:29:22.247Z,9.78
2019-02-08T08:32:01.853Z,9.55
2019-02-08T08:35:07.746Z,9.29
2019-02-08T08:38:18.038Z,8.89
2019-02-08T08:41:42.546Z,7.70
2019-02-08T08:45:06.425Z,7.67
2019-02-08T08:48:11.200Z,7.15
2019-02-08T08:51:14.707Z,8.25
2019-02-08T08:54:32.042Z,9.16
2019-02-08T08:57:31.365Z,11.22
2019-02-08T09:00:53.045Z,11.15
2019-02-08T09:04:13.485Z,13.47
2019-02-08T09:07:37.286Z,10.82
2019-02-08T09:10:57.926Z,12.03
2019-02-08T09:14:09.460Z,11.08
2019-02-08T09:17:37.508Z,13.60
2019-02-08T09:20:52.443Z,10.14
2019-02-08T09:24:07.146Z,12.98
2019-02-08T09:27:27.825Z,12.15
2019-02-08T09:30:41.817Z,12.06
2019-02-08T09:34:10.100Z,10.00
2019-02-08T09:37:14.900Z,11.62
2019-02-08T09:40:23.809Z,13.44
2019-02-08T09:43:51.683Z,14.38
2019-02-08T09:47:19.575Z,13.36
2019-02-08T09:50:47.429Z,14.00
2019-02-08T09:53:51.864Z,12.78
2019-02-08T09:57:07.586Z,11.59
2019-02-08T10:00:23.905Z,13.59
2019-02-08T10:03:51.751Z,11.82
2019-02-08T10:07:15.201Z,11.73
2019-02-08T10:10:31.378Z,13.00
2019-02-08T10:13:59.695Z,13.37
2019-02-08T10:17:10.954Z,13.39
2019-02-08T10:20:28.305Z,14.44
2019-02-08T10:23:56.277Z,15.99
2019-02-08T10:27:24.205Z,16.86
2019-02-08T10:30:50.206Z,14.42
2019-02-08T10:34:18.165Z,14.17
2019-02-08T10:37:46.068Z,14.98
2019-02-08T10:41:14.021Z,13.08
2019-02-08T10:44:37.546Z,15.22
2019-02-08T10:47:54.750Z,15.11
2019-02-08T10:51:22.685Z,14.19
2019-02-08T10:54:50.547Z,14.95
2019-02-08T10:58:18.521Z,14.55
2019-02-08T11:01:46.478Z,14.07
2019-02-08T11:05:14.459Z,13.60
2019-02-08T11:08:29.460Z,14.09
2019-02-08T11:11:57.381Z,13.63
2019-02-08T11:15:25.245Z,13.26
2019-02-08T11:18:52.221Z,13.26
2019-02-08T11:21:22.816Z,13.09
2019-02-08T11:23:53.395Z,16.16
2019-02-08T11:26:24.588Z,13.56
2019-02-08T11:28:55.390Z,13.96
2019-02-08T11:31:25.841Z,12.38
2019-02-08T11:33:56.380Z,14.60
2019-02-08T11:36:27.007Z,14.55
2019-02-08T11:38:57.728Z,12.69
2019-02-08T11:41:28.601Z,14.27
2019-02-08T11:43:59.281Z,12.30
2019-02-08T11:46:29.889Z,13.17
2019-02-08T11:49:00.470Z,13.31
2019-02-08T11:51:30.999Z,12.44
2019-02-08T11:54:01.622Z,13.01
2019-02-08T11:56:32.141Z,12.43
2019-02-08T11:59:02.850Z,12.28
2019-02-08T12:01:38.439Z,12.16
2019-02-08T12:04:09.502Z,13.36
2019-02-08T12:06:40.130Z,13.55
2019-02-08T12:09:18.210Z,14.31
2019-02-08T12:11:49.209Z,15.00
2019-02-08T12:14:19.922Z,13.15
2019-02-08T12:16:50.450Z,12.63
2019-02-08T12:19:21.161Z,12.83
2019-02-08T12:21:51.861Z,13.51
2019-02-08T12:24:22.931Z,12.08
2019-02-08T12:26:53.680Z,11.62
2019-02-08T12:29:24.421Z,11.77
2019-02-08T12:31:54.960Z,11.01
2019-02-08T12:34:25.906Z,10.71
2019-02-08T12:36:56.522Z,10.19
2019-02-08T12:39:27.189Z,9.49
2019-02-08T12:41:58.089Z,9.11
2019-02-08T12:44:28.897Z,9.78
2019-02-08T12:46:59.647Z,8.87
2019-02-08T12:49:30.121Z,9.22
2019-02-08T12:52:00.993Z,9.17
2019-02-08T12:54:31.721Z,8.17
2019-02-08T12:57:03.589Z,8.53
2019-02-08T12:59:34.346Z,8.60
2019-02-08T13:02:05.750Z,8.95
2019-02-08T13:04:36.919Z,9.17
2019-02-08T13:07:07.600Z,8.34
2019-02-08T13:09:39.596Z,8.51
2019-02-08T13:12:10.611Z,8.60
2019-02-08T13:14:42.346Z,8.00
2019-02-08T13:17:13.087Z,7.77
2019-02-08T13:19:43.628Z,7.94
2019-02-08T13:22:15.456Z,7.97
2019-02-08T13:24:46.122Z,7.78
2019-02-08T13:27:16.801Z,7.39
2019-02-08T13:29:47.632Z,7.25
2019-02-08T13:32:18.269Z,7.40
2019-02-08T13:34:48.867Z,6.94
2019-02-08T13:37:19.506Z,7.06
2019-02-08T13:39:50.109Z,7.17
2019-02-08T13:42:20.667Z,7.07
2019-02-08T13:44:51.216Z,7.23
2019-02-08T13:47:21.946Z,7.19
2019-02-08T13:49:52.747Z,7.49
2019-02-08T13:52:23.426Z,7.01
2019-02-08T13:54:55.220Z,7.21
2019-02-08T13:57:27.121Z,7.11
2019-02-08T13:59:57.875Z,6.90
2019-02-08T14:02:28.401Z,6.80
2019-02-08T14:04:59.121Z,6.63
2019-02-08T14:07:29.760Z,6.87
2019-02-08T14:10:02.719Z,6.56
2019-02-08T14:12:34.317Z,6.54
2019-02-08T14:15:06.188Z,6.59
2019-02-08T14:17:37.376Z,6.36
2019-02-08T14:20:11.121Z,6.30
2019-02-08T14:22:41.806Z,6.39
2019-02-08T14:25:13.790Z,6.36
2019-02-08T14:27:45.019Z,6.31
2019-02-08T14:30:22.012Z,6.39
2019-02-08T14:32:52.781Z,6.29
2019-02-08T14:35:23.607Z,6.30
2019-02-08T14:37:55.101Z,6.12
2019-02-08T14:40:26.431Z,6.03
2019-02-08T14:42:57.200Z,5.93
2019-02-08T14:45:27.961Z,5.85
2019-02-08T14:47:58.710Z,5.89
2019-02-08T14:50:30.120Z,5.88
2019-02-08T14:53:01.199Z,5.83
2019-02-08T14:55:32.639Z,5.83
2019-02-08T14:58:03.548Z,5.74
2019-02-08T15:00:34.278Z,5.76
2019-02-08T15:03:04.808Z,5.55
2019-02-08T15:05:35.485Z,5.49
2019-02-08T15:08:06.478Z,5.33
2019-02-08T15:10:41.339Z,5.34
2019-02-08T15:13:12.293Z,5.25
2019-02-08T15:15:42.881Z,5.15
2019-02-08T15:18:13.693Z,5.04
2019-02-08T15:20:44.279Z,4.92
2019-02-08T15:23:14.946Z,4.91
2019-02-08T15:25:45.532Z,4.87
2019-02-08T15:28:16.111Z,4.76
2019-02-08T15:30:46.939Z,4.70
2019-02-08T15:33:17.590Z,4.58
2019-02-08T15:35:48.194Z,4.56
2019-02-08T15:38:18.938Z,4.52
2019-02-08T15:40:53.879Z,4.42
2019-02-08T15:43:26.061Z,4.41
2019-02-08T15:46:03.693Z,4.36
2019-02-08T15:48:34.521Z,4.24
2019-02-08T15:51:05.500Z,4.19
2019-02-08T15:53:36.381Z,4.01
2019-02-08T15:56:13.954Z,3.96
2019-02-08T15:58:44.776Z,3.92
2019-02-08T16:01:16.238Z,3.86
2019-02-08T16:03:46.865Z,3.87
2019-02-08T16:06:17.578Z,3.84
2019-02-08T16:08:48.255Z,3.78
2019-02-08T16:11:18.933Z,3.70
2019-02-08T16:13:49.706Z,3.70
2019-02-08T16:16:20.472Z,3.63
2019-02-08T16:18:51.153Z,3.60
2019-02-08T16:21:21.959Z,3.55
2019-02-08T16:23:52.722Z,3.54
2019-02-08T16:26:23.533Z,3.46
2019-02-08T16:28:54.517Z,3.41
2019-02-08T16:31:25.174Z,3.32
2019-02-08T16:33:55.919Z,3.25
2019-02-08T16:36:27.979Z,3.16
2019-02-08T16:38:58.705Z,3.15
2019-02-08T16:41:29.540Z,3.18
2019-02-08T16:44:00.455Z,3.09
2019-02-08T16:46:31.576Z,2.99
2019-02-08T16:49:03.474Z,3.01
2019-02-08T16:51:34.219Z,2.96
2019-02-08T16:54:05.174Z,3.10
2019-02-08T16:56:35.930Z,3.00
2019-02-08T16:59:07.298Z,3.01
2019-02-08T17:01:39.189Z,2.92
2019-02-08T17:04:11.659Z,2.89
2019-02-08T17:06:42.481Z,2.79
2019-02-08T17:09:17.955Z,2.83
2019-02-08T17:11:53.219Z,2.71
2019-02-08T17:14:25.019Z,2.62
2019-02-08T17:16:58.818Z,2.75
2019-02-08T17:19:30.872Z,2.76
2019-02-08T17:22:04.449Z,2.72
2019-02-08T17:24:35.244Z,2.95
2019-02-08T17:27:06.140Z,2.85
2019-02-08T17:29:41.560Z,2.77
2019-02-08T17:32:12.507Z,2.67
2019-02-08T17:34:43.344Z,2.67
2019-02-08T17:37:15.189Z,2.62
2019-02-08T17:39:46.025Z,2.54
2019-02-08T17:42:20.960Z,2.49
2019-02-08T17:44:51.962Z,2.42
2019-02-08T17:47:23.196Z,2.26
2019-02-08T17:49:53.863Z,2.24
2019-02-08T17:52:25.929Z,2.13
2019-02-08T17:54:56.581Z,2.10
2019-02-08T17:57:33.511Z,2.09
2019-02-08T18:00:11.711Z,2.04
2019-02-08T18:02:42.492Z,1.98
2019-02-08T18:05:14.111Z,1.91
2019-02-08T18:07:46.300Z,1.86
2019-02-08T18:10:23.683Z,1.77
2019-02-08T18:12:59.137Z,1.77
2019-02-08T18:15:30.225Z,1.78
2019-02-08T18:18:02.898Z,1.73
2019-02-08T18:20:37.168Z,1.73
2019-02-08T18:23:08.238Z,1.69
2019-02-08T18:25:38.935Z,1.68
2019-02-08T18:28:11.298Z,1.60
2019-02-08T18:30:42.250Z,1.52
2019-02-08T18:33:13.419Z,1.43
2019-02-08T18:35:44.191Z,1.39
2019-02-08T18:38:16.112Z,1.38
2019-02-08T18:40:57.349Z,1.37
2019-02-08T18:43:28.642Z,1.36
2019-02-08T18:45:59.391Z,1.34
2019-02-08T18:48:33.722Z,1.35
2019-02-08T18:51:06.562Z,1.39
2019-02-08T18:53:37.287Z,1.41
2019-02-08T18:56:13.062Z,1.42
2019-02-08T18:58:44.939Z,1.43
2019-02-08T19:01:19.134Z,1.39
2019-02-08T19:03:52.962Z,1.36
2019-02-08T19:06:27.591Z,1.34
2019-02-08T19:08:58.829Z,1.32
2019-02-08T19:11:34.303Z,1.40
2019-02-08T19:14:09.080Z,1.43
2019-02-08T19:16:39.714Z,1.48
2019-02-08T19:19:18.665Z,1.48
2019-02-08T19:21:51.132Z,1.55
2019-02-08T19:24:26.285Z,1.60
2019-02-08T19:26:58.011Z,1.58
2019-02-08T19:29:33.381Z,1.46
2019-02-08T19:32:07.999Z,1.43
2019-02-08T19:34:42.940Z,1.44
2019-02-08T19:37:23.481Z,1.43
2019-02-08T19:39:56.959Z,1.49
2019-02-08T19:42:29.251Z,1.51
2019-02-08T19:45:05.003Z,1.52
2019-02-08T19:47:36.984Z,1.71
2019-02-08T19:50:11.331Z,1.70
2019-02-08T19:52:51.523Z,1.62
2019-02-08T19:55:25.042Z,1.60
2019-02-08T19:58:01.519Z,1.54
2019-02-08T20:00:39.030Z,1.52
2019-02-08T20:03:11.030Z,1.55
2019-02-08T20:05:42.170Z,1.57
2019-02-08T20:08:19.011Z,1.57
2019-02-08T20:10:52.616Z,1.54
2019-02-08T20:13:23.465Z,1.53
2019-02-08T20:15:54.282Z,1.59
2019-02-08T20:18:31.825Z,1.53
2019-02-08T20:21:03.828Z,1.51
2019-02-08T20:23:46.881Z,1.48
2019-02-08T20:26:18.939Z,1.48
2019-02-08T20:28:50.469Z,1.49
2019-02-08T20:31:26.843Z,1.56
2019-02-08T20:34:00.781Z,1.60
2019-02-08T20:36:34.920Z,1.69
2019-02-08T20:39:09.704Z,1.68
2019-02-08T20:41:40.868Z,1.64
2019-02-08T20:44:18.036Z,1.61
2019-02-08T20:46:50.791Z,1.65
2019-02-08T20:49:31.867Z,1.61
2019-02-08T20:52:03.898Z,1.58
2019-02-08T20:54:41.501Z,1.50
2019-02-08T20:57:15.645Z,1.44
2019-02-08T20:59:56.034Z,1.41
2019-02-08T21:02:36.386Z,1.43
2019-02-08T21:05:09.247Z,1.46
2019-02-08T21:07:42.709Z,1.42
2019-02-08T21:10:16.513Z,1.36
2019-02-08T21:12:49.548Z,1.36
2019-02-08T21:15:22.918Z,1.36
2019-02-08T21:17:57.132Z,1.31
2019-02-08T21:20:29.557Z,1.24
2019-02-08T21:23:04.292Z,1.22
2019-02-08T21:25:37.015Z,1.21
2019-02-08T21:28:10.998Z,1.21
2019-02-08T21:30:46.263Z,1.20
2019-02-08T21:33:18.315Z,1.13
2019-02-08T21:35:51.906Z,1.12
2019-02-08T21:38:24.194Z,1.10
2019-02-08T21:40:56.144Z,1.06
2019-02-08T21:43:28.456Z,1.10
2019-02-08T21:45:59.256Z,1.11
2019-02-08T21:48:30.312Z,1.08
2019-02-08T21:51:02.217Z,1.06
2019-02-08T21:53:33.080Z,1.04
2019-02-08T21:56:04.069Z,1.05
2019-02-08T21:58:37.587Z,1.06
2019-02-08T22:01:08.848Z,1.06
2019-02-08T22:03:40.696Z,1.04
2019-02-08T22:06:12.425Z,1.04
2019-02-08T22:08:43.692Z,1.05
2019-02-08T22:11:14.513Z,1.00
2019-02-08T22:13:45.352Z,0.99
2019-02-08T22:16:16.487Z,0.99
2019-02-08T22:18:50.795Z,1.05
2019-02-08T22:21:24.155Z,1.03
2019-02-08T22:23:57.024Z,1.01
2019-02-08T22:26:28.835Z,1.01
2019-02-08T22:29:00.851Z,0.98
2019-02-08T22:31:34.054Z,0.96
2019-02-08T22:34:06.916Z,0.92
2019-02-08T22:36:40.662Z,0.88
2019-02-08T22:39:14.256Z,0.88
2019-02-08T22:41:48.059Z,0.87
2019-02-08T22:44:23.240Z,0.87
2019-02-08T22:46:56.862Z,0.87
2019-02-08T22:49:30.456Z,0.90
2019-02-08T22:52:01.247Z,0.90
2019-02-08T22:54:31.927Z,0.89
2019-02-08T22:57:02.470Z,0.86
2019-02-08T22:59:32.926Z,0.87
2019-02-08T23:02:04.131Z,0.85
2019-02-08T23:04:34.752Z,0.86
2019-02-08T23:07:05.788Z,0.85
2019-02-08T23:09:36.355Z,0.90
2019-02-08T23:12:08.272Z,0.91
2019-02-08T23:14:39.016Z,0.88
2019-02-08T23:17:10.170Z,0.89
2019-02-08T23:19:40.703Z,0.88
2019-02-08T23:22:11.582Z,0.86
2019-02-08T23:24:42.359Z,0.79
2019-02-08T23:27:13.453Z,0.79
2019-02-08T23:29:44.220Z,0.78
2019-02-08T23:32:15.019Z,0.76
2019-02-08T23:34:45.719Z,0.75
2019-02-08T23:37:16.400Z,0.77
2019-02-08T23:39:47.164Z,0.87
2019-02-08T23:42:18.019Z,0.87
2019-02-08T23:44:48.759Z,0.85
2019-02-08T23:47:19.557Z,0.84
2019-02-08T23:49:50.375Z,0.84
2019-02-08T23:52:21.035Z,0.84
2019-02-08T23:54:51.659Z,0.82
2019-02-08T23:57:22.455Z,0.80
2019-02-08T23:59:53.230Z,0.77
